Meteorología y climatología de Navarra
Datos de la estación - Meteo Navarra

Estación de Estella GN

Altitud 486 m.


Datos desde el 23/05/2020 hasta el 24/05/2020 en horario solar
Los datos son PROVISIONALES

Anterior Página 1 de 1 Siguiente Descargar: Formato para Excel 2000 o superior   Formato csv   Formato para OpenOffice Calc
Fecha Temperatura Humedad relativa Radiación global Insolación Precipitación Vel. viento 10 m Vel. viento 10 m Dir. viento 10 m
ºC % W/m² s l/m² m/s km/h º
23/05/2020 0:00 16.2 81 0.0 0 0.0 1.9 7.0 2
23/05/2020 0:10 16.1 81 0.0 0 0.0 2.3 8.3 5
23/05/2020 0:20 16.0 81 0.0 0 0.0 2.6 9.3 6
23/05/2020 0:30 16.0 81 0.0 0 0.0 1.8 6.4 349
23/05/2020 0:40 15.9 81 0.0 0 0.0 1.5 5.4 326
23/05/2020 0:50 15.7 82 0.0 0 0.0 1.4 5.0 338
23/05/2020 1:00 15.7 82 0.0 0 0.0 1.9 6.8 9
23/05/2020 1:10 15.7 82 0.0 0 0.0 1.9 6.9 15
23/05/2020 1:20 15.6 82 0.0 0 0.0 2.2 7.7 26
23/05/2020 1:30 15.7 82 0.0 0 0.0 1.7 6.1 1
23/05/2020 1:40 15.7 82 0.0 0 0.0 1.3 4.5 5
23/05/2020 1:50 15.5 83 0.0 0 0.0 1.7 6.2 8
23/05/2020 2:00 15.4 83 0.0 0 0.0 1.6 5.7 1
23/05/2020 2:10 15.4 83 0.0 0 0.0 1.7 5.9 11
23/05/2020 2:20 15.4 83 0.0 0 0.0 1.5 5.5 353
23/05/2020 2:30 15.3 82 0.0 0 0.0 1.3 4.8 10
23/05/2020 2:40 15.2 83 0.0 0 0.0 1.5 5.3 7
23/05/2020 2:50 15.1 83 0.0 0 0.0 1.3 4.6 7
23/05/2020 3:00 15.0 83 0.0 0 0.0 1.0 3.7 23
23/05/2020 3:10 14.8 84 0.0 0 0.0 1.1 4.0 28
23/05/2020 3:20 14.8 84 0.0 0 0.0 1.0 3.5 18
23/05/2020 3:30 14.7 85 0.0 0 0.0 1.1 4.0 39
23/05/2020 3:40 14.6 85 0.0 0 0.0 1.0 3.6 42
23/05/2020 3:50 14.4 87 0.0 0 0.0 0.6 2.1 42
23/05/2020 4:00 14.5 87 0.0 0 0.0 1.2 4.2 21
23/05/2020 4:10 14.9 85 0.0 0 0.0 1.4 4.9 319
23/05/2020 4:20 14.9 85 0.0 0 0.0 0.9 3.3 38
23/05/2020 4:30 14.9 86 0.0 0 0.0 0.7 2.4 9
23/05/2020 4:40 14.7 86 0.0 0 0.0 0.6 2.1 325
23/05/2020 4:50 14.7 87 0.0 0 0.0 0.8 2.8 333
23/05/2020 5:00 14.8 88 0.0 0 0.0 0.8 3.0 352
23/05/2020 5:10 15.1 86 3.0 0 0.0 0.7 2.5 20
23/05/2020 5:20 15.3 85 17.8 0 0.0 1.0 3.7 4
23/05/2020 5:30 15.5 84 24.5 0 0.0 0.2 0.8 33
23/05/2020 5:40 15.6 86 30.5 0 0.0 0.3 1.0 308
23/05/2020 5:50 15.8 84 44.6 0 0.0 0.4 1.6 320
23/05/2020 6:00 15.9 83 53.6 0 0.0 1.0 3.5 347
23/05/2020 6:10 16.1 81 63.4 0 0.0 0.8 3.0 324
23/05/2020 6:20 16.2 80 52.5 0 0.0 0.9 3.3 296
23/05/2020 6:30 16.2 79 56.4 0 0.0 1.1 4.0 311
23/05/2020 6:40 16.2 80 46.9 0 0.0 1.1 4.0 311
23/05/2020 6:50 16.2 80 55.2 0 0.0 1.1 3.9 322
23/05/2020 7:00 16.2 80 67.6 0 0.0 0.4 1.6 282
23/05/2020 7:10 16.3 79 57.0 0 0.0 0.8 3.0 277
23/05/2020 7:20 16.3 79 51.2 0 0.0 0.9 3.1 293
23/05/2020 7:30 16.4 78 71.1 0 0.0 1.0 3.5 284
23/05/2020 7:40 16.5 78 87.6 0 0.0 1.0 3.4 286
23/05/2020 7:50 16.6 78 69.8 0 0.0 0.8 2.8 282
23/05/2020 8:00 16.7 78 116.5 0 0.0 0.5 1.7 350
23/05/2020 8:10 17.2 76 120.6 0 0.0 0.4 1.6 10
23/05/2020 8:20 17.5 73 215.5 0 0.0 0.9 3.1 297
23/05/2020 8:30 18.2 72 351.9 260 0.0 1.4 5.0 301
23/05/2020 8:40 18.3 70 311.2 0 0.0 1.4 5.0 315
23/05/2020 8:50 18.3 70 273.0 0 0.0 1.7 6.2 329
23/05/2020 9:00 18.3 71 467.4 372 0.0 1.5 5.4 311
23/05/2020 9:10 19.0 68 526.4 566 0.0 1.6 5.6 318
23/05/2020 9:20 19.3 67 669.0 598 0.0 2.1 7.7 331
23/05/2020 9:30 19.4 64 343.5 0 0.0 2.0 7.3 326
23/05/2020 9:40 18.3 67 326.7 0 0.0 1.9 7.0 332
23/05/2020 9:50 17.9 68 518.7 438 0.0 2.0 7.3 326
23/05/2020 10:00 18.0 67 444.7 176 0.0 1.9 6.9 303
23/05/2020 10:10 18.4 66 854.0 600 0.0 2.0 7.3 298
23/05/2020 10:20 19.2 64 834.0 600 0.0 1.8 6.6 301
23/05/2020 10:30 19.7 61 618.3 600 0.0 1.8 6.5 335
23/05/2020 10:40 18.9 61 494.6 438 0.0 2.3 8.1 339
23/05/2020 10:50 18.9 62 562.1 490 0.0 2.2 7.9 330
23/05/2020 11:00 18.4 63 624.4 600 0.0 3.3 11.9 308
23/05/2020 11:10 18.2 64 696.6 600 0.0 2.6 9.3 309
23/05/2020 11:20 18.5 64 986.0 600 0.0 2.3 8.4 289
23/05/2020 11:30 19.3 62 1087.0 600 0.0 1.8 6.4 320
23/05/2020 11:40 19.6 60 1055.0 600 0.0 2.2 7.9 313
23/05/2020 11:50 19.6 60 952.0 504 0.0 2.5 9.1 328
23/05/2020 12:00 19.8 59 1071.0 600 0.0 2.3 8.1 312
23/05/2020 12:10 19.8 58 1128.0 600 0.0 2.4 8.6 327
23/05/2020 12:20 19.7 59 1001.0 600 0.0 2.2 7.7 333
23/05/2020 12:30 19.9 58 1029.0 600 0.0 1.9 6.7 318
23/05/2020 12:40 19.9 58 1075.0 590 0.0 2.0 7.1 309
23/05/2020 12:50 20.0 58 861.0 454 0.0 1.7 6.1 334
23/05/2020 13:00 20.1 58 1017.0 546 0.0 2.3 8.1 327
23/05/2020 13:10 20.1 57 909.0 600 0.0 2.4 8.5 320
23/05/2020 13:20 19.5 59 526.9 356 0.0 2.5 8.9 338
23/05/2020 13:30 19.1 60 709.6 600 0.0 2.3 8.1 328
23/05/2020 13:40 18.7 62 561.1 600 0.0 2.1 7.6 294
23/05/2020 13:50 18.7 62 826.0 600 0.0 2.5 9.0 294
23/05/2020 14:00 18.7 62 862.0 600 0.0 2.5 8.9 311
23/05/2020 14:10 18.5 61 953.0 600 0.0 2.2 7.8 308
23/05/2020 14:20 18.1 60 883.0 600 0.0 2.3 8.3 319
23/05/2020 14:30 17.9 61 861.0 600 0.0 2.3 8.4 310
23/05/2020 14:40 17.7 61 832.0 600 0.0 2.9 10.4 309
23/05/2020 14:50 17.5 62 802.0 600 0.0 2.2 7.9 307
23/05/2020 15:00 17.8 61 774.9 600 0.0 2.2 7.9 323
23/05/2020 15:10 17.5 62 751.3 600 0.0 2.5 9.1 317
23/05/2020 15:20 17.7 62 725.8 600 0.0 2.6 9.4 329
23/05/2020 15:30 17.9 61 699.5 600 0.0 2.3 8.4 314
23/05/2020 15:40 18.0 60 672.5 600 0.0 1.9 6.8 305
23/05/2020 15:50 17.6 61 644.6 600 0.0 2.0 7.3 298
23/05/2020 16:00 17.6 61 613.2 600 0.0 2.2 7.9 315
23/05/2020 16:10 17.5 61 583.3 600 0.0 2.1 7.4 292
23/05/2020 16:20 17.1 62 554.6 600 0.0 2.3 8.1 304
23/05/2020 16:30 17.2 60 532.2 600 0.0 2.2 7.9 300
23/05/2020 16:40 17.0 60 503.8 600 0.0 2.0 7.2 302
23/05/2020 16:50 17.1 60 475.3 600 0.0 2.1 7.4 305
23/05/2020 17:00 16.5 62 430.4 600 0.0 2.5 9.0 303
23/05/2020 17:10 16.1 64 395.5 600 0.0 2.3 8.1 314
23/05/2020 17:20 16.1 64 344.7 564 0.0 2.1 7.6 305
23/05/2020 17:30 15.9 65 314.3 572 0.0 2.2 8.1 311
23/05/2020 17:40 15.3 67 295.3 600 0.0 1.8 6.6 308
23/05/2020 17:50 15.1 67 262.2 600 0.0 1.8 6.6 294
23/05/2020 18:00 15.1 65 231.2 600 0.0 2.1 7.6 307
23/05/2020 18:10 15.0 64 196.3 600 0.0 2.3 8.1 327
23/05/2020 18:20 15.0 64 150.4 534 0.0 1.6 5.7 310
23/05/2020 18:30 14.5 66 91.9 296 0.0 1.3 4.6 307
23/05/2020 18:40 14.2 67 28.7 0 0.0 1.1 4.0 291
23/05/2020 18:50 13.8 68 25.8 0 0.0 1.2 4.5 299
23/05/2020 19:00 13.5 69 19.2 0 0.0 1.1 4.0 278
23/05/2020 19:10 13.2 69 8.9 0 0.0 1.2 4.3 260
23/05/2020 19:20 12.8 70 0.0 0 0.0 1.3 4.7 322
23/05/2020 19:30 12.3 71 0.0 0 0.0 1.7 5.9 338
23/05/2020 19:40 12.0 71 0.0 0 0.0 1.8 6.3 342
23/05/2020 19:50 11.8 70 0.0 0 0.0 1.6 5.7 321
23/05/2020 20:00 11.4 71 0.0 0 0.0 0.8 2.7 322
23/05/2020 20:10 11.2 72 0.0 0 0.0 1.5 5.5 316
23/05/2020 20:20 10.9 73 0.0 0 0.0 0.9 3.2 328
23/05/2020 20:30 10.7 74 0.0 0 0.0 0.9 3.1 322
23/05/2020 20:40 10.6 74 0.0 0 0.0 1.2 4.1 8
23/05/2020 20:50 10.5 74 0.0 0 0.0 1.0 3.6 30
23/05/2020 21:00 10.4 75 0.0 0 0.0 0.9 3.2 30
23/05/2020 21:10 10.3 75 0.0 0 0.0 0.9 3.1 59
23/05/2020 21:20 10.0 77 0.0 0 0.0 0.7 2.6 51
23/05/2020 21:30 10.3 77 0.0 0 0.0 1.0 3.7 332
23/05/2020 21:40 10.2 77 0.0 0 0.0 0.6 2.0 344
23/05/2020 21:50 10.1 78 0.0 0 0.0 1.1 3.8 34
23/05/2020 22:00 10.1 78 0.0 0 0.0 1.0 3.7 348
23/05/2020 22:10 10.4 77 0.0 0 0.0 1.2 4.2 334
23/05/2020 22:20 10.4 77 0.0 0 0.0 0.7 2.3 19
23/05/2020 22:30 10.1 79 0.0 0 0.0 0.8 2.7 349
23/05/2020 22:40 10.2 79 0.0 0 0.0 0.8 3.0 3
23/05/2020 22:50 10.5 78 0.0 0 0.0 0.9 3.1 15
23/05/2020 23:00 10.1 80 0.0 0 0.0 0.4 1.5 335
23/05/2020 23:10 9.7 82 0.0 0 0.0 0.5 1.9 341
23/05/2020 23:20 10.1 80 0.0 0 0.0 0.7 2.5 19
23/05/2020 23:30 10.3 79 0.0 0 0.0 1.4 5.0 8
23/05/2020 23:40 10.3 78 0.0 0 0.0 0.9 3.2 360
23/05/2020 23:50 10.0 79 0.0 0 0.0 0.8 2.7 325
Anterior Página 1 de 1 Siguiente

NOTA: Tipo de datos según el color:
   - Valores diarios o 10 minutos correctos
   - Valores diarios calculados a partir de un número de datos 10 minutos menor que 144 y mayor que 120, o de un número de datos semihorarios menor que 48 y mayor que 40 (caso de las estaciones de INTIA y del Ministerio)
   - Valores diez minutos estimados


Contacto        Enlaces        Aviso legal